100  
SHUS65 KGJT 182014  
FWOGJT  
 
DAILY FIRE WEATHER OBSERVATION  
NATIONAL WEATHER SERVICE GRAND JUNCTION CO  
212 PM MDT THU JUL 18 2019  
 
STATE OF THE WEATHER (W) 0  
DRY BULB TEMPERATURE 93 DEGREES FAHRENHEIT  
RELATIVE HUMIDITY (RH) 9 PERCENT  
LIGHTNING ACTIVITY LEVEL  
(LAL - MIDNIGHT TO 2 PM) 1  
WIND DIRECTION C DEGREES (C IF CALM)  
WIND SPEED 0 MPH  
MAX TEMP (2 PM - 2 PM) 99 DEGREES FAHRENHEIT  
MIN TEMP (2 PM - 2 PM) 55 DEGREES FAHRENHEIT  
MAX RH (2 PM - 2 PM) 33 PERCENT  
MIN RH (2 PM - 2 PM) 9 PERCENT  
PCPN DURATION 0.0 HOURS  
PCPN AMT (2 PM - 2 PM) 0.0 INCHES  
LAL (2 PM - 2 PM) 1  
 

 
 
METAR KGJT 181953Z VRB05KT 10SM CLR 34/M03 A3001 RMK AO2 SLP080  
T03391033  
 
CLICK HERE TO GO TO PREVIOUS BULLETINS.

The Nexlab CO Page
The Nexlab UT Page Main Text Page